Time;durP1;ratioP1;P1;durP2;ratioP2;P2;SDS_P1;SDS_P2;PMS_P1;PMS_P2;Temp;Humidity;BMP_temperature;BMP_pressure;BME280_temperature;BME280_humidity;BME280_pressure;Samples;Min_cycle;Max_cycle;Signal;HPM_P1;HPM_P2
2023/01/29 00:02:20;;;;;;;;;;;;;;;;;;5057495;28;19940;-78
2023/01/29 00:04:46;;;;;;;;;;;;;;;;;;5060512;28;19935;-78
2023/01/29 00:07:11;;;;;;;;;;;;;;;;;;5057437;28;20015;-78
2023/01/29 00:09:37;;;;;;;;;;;;;;;;;;5057395;28;19912;-78
2023/01/29 00:12:03;;;;;;;;;;;;;;;;;;5057451;28;20343;-79
2023/01/29 00:14:29;;;;;;;;;;;;;;;;;;5057549;28;19908;-80
2023/01/29 00:16:55;;;;;;;;;;;;;;;;;;5057366;28;19909;-79
2023/01/29 00:19:21;;;;;;;;;;;;;;;;;;5057226;28;19962;-78
2023/01/29 00:21:47;;;;;;;;;;;;;;;;;;5057022;28;20288;-78
2023/01/29 00:24:13;;;;;;;;;;;;;;;;;;5054657;28;20432;-78
2023/01/29 00:26:39;;;;;;;;;;;;;;;;;;5054314;28;19909;-78
2023/01/29 00:29:05;;;;;;;;;;;;;;;;;;5054485;28;19913;-79
2023/01/29 00:31:30;;;;;;;;;;;;;;;;;;5054178;28;19909;-80
2023/01/29 00:33:57;;;;;;;;;;;;;;;;;;5054436;28;19909;-78
2023/01/29 00:36:23;;;;;;;;;;;;;;;;;;5053963;28;19909;-79
2023/01/29 00:38:53;;;;;;;;;;;;;;;;;;5053960;28;19909;-78
2023/01/29 00:46:48;;;;;;;;;;;;;;;;;;5054835;28;19915;-78
2023/01/29 00:49:14;;;;;;;;;;;;;;;;;;5051810;28;20015;-78
2023/01/29 00:51:40;;;;;;;;;;;;;;;;;;5053871;28;19909;-78
2023/01/29 00:54:06;;;;;;;;;;;;;;;;;;5053800;28;19951;-79
2023/01/29 00:56:32;;;;;;;;;;;;;;;;;;5053615;28;19916;-79
2023/01/29 00:58:58;;;;;;;;;;;;;;;;;;5053244;28;19909;-78
2023/01/29 01:04:08;;;;;;;;;;;;;;;;;;5054689;28;19912;-79
2023/01/29 01:06:34;;;;;;;;;;;;;;;;;;5053236;28;19909;-78
2023/01/29 01:11:45;;;;;;;;;;;;;;;;;;5054638;28;19916;-79
2023/01/29 01:14:11;;;;;;;;;;;;;;;;;;5053722;28;20072;-78
2023/01/29 01:16:37;;;;;;;;;;;;;;;;;;5053207;28;19916;-78
2023/01/29 01:19:03;;;;;;;;;;;;;;;;;;5054178;28;19909;-78
2023/01/29 01:21:28;;;;;;;;;;;;;;;;;;5051509;28;19916;-78
2023/01/29 01:23:54;;;;;;;;;;;;;;;;;;5053082;28;19909;-79
2023/01/29 01:26:20;;;;;;;;;;;;;;;;;;5052777;28;19909;-78
2023/01/29 01:28:46;;;;;;;;;;;;;;;;;;5052742;28;19913;-78
2023/01/29 01:31:12;;;;;;;;;;;;;;;;;;5054150;28;19909;-78
2023/01/29 01:33:38;;;;;;;;;;;;;;;;;;5053126;28;20384;-78
2023/01/29 01:36:04;;;;;;;;;;;;;;;;;;5052470;28;19916;-79
2023/01/29 01:38:30;;;;;;;;;;;;;;;;;;5052341;28;19909;-79
2023/01/29 01:40:56;;;;;;;;;;;;;;;;;;5052742;28;20361;-78
2023/01/29 01:43:21;;;;;;;;;;;;;;;;;;5052900;28;19913;-79
2023/01/29 01:45:48;;;;;;;;;;;;;;;;;;5052339;28;19947;-78
2023/01/29 01:48:15;;;;;;;;;;;;;;;;;;5053651;28;19917;-78
2023/01/29 01:50:41;;;;;;;;;;;;;;;;;;5052962;28;20013;-78
2023/01/29 01:53:07;;;;;;;;;;;;;;;;;;5052581;28;19944;-80
2023/01/29 01:55:33;;;;;;;;;;;;;;;;;;5052346;28;19916;-78
2023/01/29 01:57:59;;;;;;;;;;;;;;;;;;5053432;28;19962;-78
2023/01/29 02:00:25;;;;;;;;;;;;;;;;;;5053420;28;19909;-79
2023/01/29 02:11:05;;;;;;;;;;;;;;;;;;5053380;28;19954;-80
2023/01/29 02:13:30;;;;;;;;;;;;;;;;;;5053279;28;19909;-78
2023/01/29 02:15:56;;;;;;;;;;;;;;;;;;5052883;28;20278;-79
2023/01/29 02:18:22;;;;;;;;;;;;;;;;;;5051944;28;19909;-78
2023/01/29 02:20:49;;;;;;;;;;;;;;;;;;5051645;28;19920;-78
2023/01/29 02:23:14;;;;;;;;;;;;;;;;;;5052135;28;19916;-79
2023/01/29 02:25:40;;;;;;;;;;;;;;;;;;5053073;28;19909;-78
2023/01/29 02:28:06;;;;;;;;;;;;;;;;;;5052656;28;19912;-79
2023/01/29 02:30:32;;;;;;;;;;;;;;;;;;5053322;28;19916;-79
2023/01/29 02:32:58;;;;;;;;;;;;;;;;;;5053279;28;19905;-79
2023/01/29 02:35:30;;;;;;;;;;;;;;;;;;5051719;28;19955;-78
2023/01/29 02:37:56;;;;;;;;;;;;;;;;;;5052830;28;19984;-78
2023/01/29 02:40:22;;;;;;;;;;;;;;;;;;5052938;28;19943;-78
2023/01/29 02:42:48;;;;;;;;;;;;;;;;;;5052027;28;19999;-79
2023/01/29 02:45:14;;;;;;;;;;;;;;;;;;5052960;28;19911;-79
2023/01/29 02:47:40;;;;;;;;;;;;;;;;;;5050991;28;19916;-80
2023/01/29 02:50:06;;;;;;;;;;;;;;;;;;5053044;28;20316;-78
2023/01/29 02:52:32;;;;;;;;;;;;;;;;;;5051976;28;19909;-78
2023/01/29 02:55:01;;;;;;;;;;;;;;;;;;5051951;28;20283;-78
2023/01/29 02:57:30;;;;;;;;;;;;;;;;;;5052641;28;19913;-78
2023/01/29 02:59:56;;;;;;;;;;;;;;;;;;5051437;28;19913;-78
2023/01/29 03:02:22;;;;;;;;;;;;;;;;;;5052695;28;19909;-78
2023/01/29 03:04:48;;;;;;;;;;;;;;;;;;5051210;28;20269;-78
2023/01/29 03:07:39;;;;;;;;;;;;;;;;;;5051081;28;19913;-78
2023/01/29 03:10:00;;;;;;;;;;;;;;;;;;5052402;28;20393;-79
2023/01/29 03:12:35;;;;;;;;;;;;;;;;;;5051316;28;19915;-78
2023/01/29 03:15:10;;;;;;;;;;;;;;;;;;5050996;28;20293;-79
2023/01/29 03:17:36;;;;;;;;;;;;;;;;;;5051073;28;19970;-78
2023/01/29 03:20:02;;;;;;;;;;;;;;;;;;5050908;28;19974;-79
2023/01/29 03:22:28;;;;;;;;;;;;;;;;;;5052527;28;19909;-78
2023/01/29 03:33:08;;;;;;;;;;;;;;;;;;5052457;28;19916;-78
2023/01/29 03:35:35;;;;;;;;;;;;;;;;;;5052273;28;20289;-78
2023/01/29 03:38:01;;;;;;;;;;;;;;;;;;5050894;28;19959;-78
2023/01/29 03:40:27;;;;;;;;;;;;;;;;;;5052414;28;19974;-78
2023/01/29 03:42:53;;;;;;;;;;;;;;;;;;5052547;28;20381;-78
2023/01/29 03:45:18;;;;;;;;;;;;;;;;;;5052026;28;19916;-80
2023/01/29 03:47:44;;;;;;;;;;;;;;;;;;5050371;28;20365;-78
2023/01/29 03:50:10;;;;;;;;;;;;;;;;;;5051132;28;19909;-78
2023/01/29 03:52:36;;;;;;;;;;;;;;;;;;5053299;28;19915;-79
2023/01/29 03:55:05;;;;;;;;;;;;;;;;;;5054431;28;19909;-79
2023/01/29 03:57:31;;;;;;;;;;;;;;;;;;5054029;28;19913;-79
2023/01/29 03:59:57;;;;;;;;;;;;;;;;;;5057296;28;19909;-78
2023/01/29 04:02:26;;;;;;;;;;;;;;;;;;5057893;28;19955;-78
2023/01/29 04:04:54;;;;;;;;;;;;;;;;;;5054909;28;20375;-79
2023/01/29 04:07:23;;;;;;;;;;;;;;;;;;5055629;28;19920;-79
2023/01/29 04:09:49;;;;;;;;;;;;;;;;;;5056452;28;19956;-79
2023/01/29 04:12:15;;;;;;;;;;;;;;;;;;5056265;28;20277;-80
2023/01/29 04:14:41;;;;;;;;;;;;;;;;;;5054452;28;19995;-79
2023/01/29 04:17:07;;;;;;;;;;;;;;;;;;5055942;28;19915;-79
2023/01/29 04:19:33;;;;;;;;;;;;;;;;;;5054125;28;20371;-78
2023/01/29 04:21:58;;;;;;;;;;;;;;;;;;5052822;28;19963;-80
2023/01/29 04:24:24;;;;;;;;;;;;;;;;;;5055369;28;19914;-78
2023/01/29 04:26:50;;;;;;;;;;;;;;;;;;5054105;28;20323;-78
2023/01/29 04:29:16;;;;;;;;;;;;;;;;;;5055173;28;19913;-78
2023/01/29 04:31:42;;;;;;;;;;;;;;;;;;5055660;28;19915;-78
2023/01/29 04:34:08;;;;;;;;;;;;;;;;;;5055470;28;19909;-78
2023/01/29 04:36:34;;;;;;;;;;;;;;;;;;5053802;28;20379;-78
2023/01/29 04:39:00;;;;;;;;;;;;;;;;;;5053886;28;19908;-78
2023/01/29 04:41:26;;;;;;;;;;;;;;;;;;5054080;28;20000;-78
2023/01/29 04:43:52;;;;;;;;;;;;;;;;;;5055348;28;19913;-78
2023/01/29 04:46:18;;;;;;;;;;;;;;;;;;5053685;28;20278;-78
2023/01/29 04:48:44;;;;;;;;;;;;;;;;;;5053593;28;19916;-79
2023/01/29 04:51:10;;;;;;;;;;;;;;;;;;5053955;28;20004;-78
2023/01/29 04:53:36;;;;;;;;;;;;;;;;;;5053905;28;19952;-79
2023/01/29 04:56:02;;;;;;;;;;;;;;;;;;5053391;28;19956;-77
2023/01/29 04:58:28;;;;;;;;;;;;;;;;;;5053265;28;20024;-78
2023/01/29 05:00:53;;;;;;;;;;;;;;;;;;5055088;28;19913;-78
2023/01/29 05:03:19;;;;;;;;;;;;;;;;;;5054779;28;20288;-78
2023/01/29 05:05:45;;;;;;;;;;;;;;;;;;5054471;28;19916;-78
2023/01/29 05:08:12;;;;;;;;;;;;;;;;;;5053025;28;20348;-78
2023/01/29 05:10:37;;;;;;;;;;;;;;;;;;5054134;28;20357;-77
2023/01/29 05:13:03;;;;;;;;;;;;;;;;;;5053643;28;19916;-77
2023/01/29 05:15:29;;;;;;;;;;;;;;;;;;5053075;28;19909;-78
2023/01/29 05:18:01;;;;;;;;;;;;;;;;;;5053064;28;20415;-77
2023/01/29 05:20:27;;;;;;;;;;;;;;;;;;5052982;28;19915;-78
2023/01/29 05:22:53;;;;;;;;;;;;;;;;;;5055034;28;19909;-79
2023/01/29 05:25:19;;;;;;;;;;;;;;;;;;5054287;28;19931;-78
2023/01/29 05:30:30;;;;;;;;;;;;;;;;;;5054569;28;20073;-80
2023/01/29 05:32:56;;;;;;;;;;;;;;;;;;5053444;28;20361;-78
2023/01/29 05:35:22;;;;;;;;;;;;;;;;;;5052794;28;19961;-80
2023/01/29 05:37:48;;;;;;;;;;;;;;;;;;5052553;28;19909;-78
2023/01/29 05:40:14;;;;;;;;;;;;;;;;;;5054566;28;19952;-78
2023/01/29 05:42:39;;;;;;;;;;;;;;;;;;5053196;28;19975;-78
2023/01/29 05:45:05;;;;;;;;;;;;;;;;;;5052707;28;20479;-78
2023/01/29 05:47:31;;;;;;;;;;;;;;;;;;5053823;28;20365;-78
2023/01/29 05:49:57;;;;;;;;;;;;;;;;;;5054400;28;19989;-79
2023/01/29 05:52:23;;;;;;;;;;;;;;;;;;5054274;28;19908;-78
2023/01/29 05:54:49;;;;;;;;;;;;;;;;;;5053618;28;19916;-78
2023/01/29 05:57:15;;;;;;;;;;;;;;;;;;5052170;28;19909;-78
2023/01/29 05:59:41;;;;;;;;;;;;;;;;;;5053964;28;19909;-80
2023/01/29 06:02:07;;;;;;;;;;;;;;;;;;5056074;28;19935;-80
2023/01/29 06:04:32;;;;;;;;;;;;;;;;;;5055200;28;19924;-81
2023/01/29 06:07:00;;;;;;;;;;;;;;;;;;5058928;28;20350;-81
2023/01/29 06:09:25;;;;;;;;;;;;;;;;;;5060616;28;19912;-80
2023/01/29 06:11:51;;;;;;;;;;;;;;;;;;5056275;28;19920;-77
2023/01/29 06:14:17;;;;;;;;;;;;;;;;;;5052376;28;19908;-78
2023/01/29 06:16:43;;;;;;;;;;;;;;;;;;5050935;28;19918;-78
2023/01/29 06:19:09;;;;;;;;;;;;;;;;;;5069685;28;19912;-78
2023/01/29 06:21:35;;;;;;;;;;;;;;;;;;5071353;28;19946;-79
2023/01/29 06:24:01;;;;;;;;;;;;;;;;;;5072348;28;19905;-78
2023/01/29 06:26:27;;;;;;;;;;;;;;;;;;5072110;28;20303;-77
2023/01/29 06:28:53;;;;;;;;;;;;;;;;;;5071688;28;19916;-78
2023/01/29 06:31:18;;;;;;;;;;;;;;;;;;5073246;28;19954;-78
2023/01/29 06:33:44;;;;;;;;;;;;;;;;;;5073323;28;19908;-78
2023/01/29 06:36:10;;;;;;;;;;;;;;;;;;5071967;28;19954;-78
2023/01/29 06:38:36;;;;;;;;;;;;;;;;;;5071774;28;19908;-78
2023/01/29 06:41:02;;;;;;;;;;;;;;;;;;5072240;28;19919;-79
2023/01/29 06:43:28;;;;;;;;;;;;;;;;;;5071708;28;19983;-78
2023/01/29 06:45:54;;;;;;;;;;;;;;;;;;5073059;28;19914;-79
2023/01/29 06:48:20;;;;;;;;;;;;;;;;;;5071690;28;19917;-78
2023/01/29 06:50:46;;;;;;;;;;;;;;;;;;5073490;28;20274;-78
2023/01/29 06:53:11;;;;;;;;;;;;;;;;;;5072290;28;19912;-78
2023/01/29 06:55:37;;;;;;;;;;;;;;;;;;5071772;28;19912;-79
2023/01/29 06:58:03;;;;;;;;;;;;;;;;;;5071572;28;20361;-78
2023/01/29 07:00:29;;;;;;;;;;;;;;;;;;5073330;28;19909;-78
2023/01/29 07:02:55;;;;;;;;;;;;;;;;;;5071949;28;19991;-79
2023/01/29 07:05:21;;;;;;;;;;;;;;;;;;5072978;28;19908;-78
2023/01/29 07:07:47;;;;;;;;;;;;;;;;;;5071359;28;19912;-79
2023/01/29 07:10:13;;;;;;;;;;;;;;;;;;5064503;28;20350;-78
2023/01/29 07:12:38;;;;;;;;;;;;;;;;;;5050060;28;19916;-78
2023/01/29 07:15:04;;;;;;;;;;;;;;;;;;5052898;28;19916;-80
2023/01/29 07:17:30;;;;;;;;;;;;;;;;;;5052284;28;20369;-78
2023/01/29 07:19:56;;;;;;;;;;;;;;;;;;5051723;28;19917;-78
2023/01/29 07:22:22;;;;;;;;;;;;;;;;;;5052517;28;19956;-79
2023/01/29 07:24:48;;;;;;;;;;;;;;;;;;5050910;28;19980;-79
2023/01/29 07:27:14;;;;;;;;;;;;;;;;;;5052005;28;19915;-78
2023/01/29 07:29:40;;;;;;;;;;;;;;;;;;5051841;28;20270;-78
2023/01/29 07:32:06;;;;;;;;;;;;;;;;;;5051902;28;19917;-78
2023/01/29 07:34:32;;;;;;;;;;;;;;;;;;5056701;28;19917;-78
2023/01/29 07:36:58;;;;;;;;;;;;;;;;;;5057176;28;19982;-78
2023/01/29 07:39:24;;;;;;;;;;;;;;;;;;5054598;28;20366;-78
2023/01/29 07:41:50;;;;;;;;;;;;;;;;;;5056823;28;19970;-78
2023/01/29 07:44:16;;;;;;;;;;;;;;;;;;5055547;28;19909;-78
2023/01/29 07:46:42;;;;;;;;;;;;;;;;;;5056524;28;19920;-78
2023/01/29 07:49:08;;;;;;;;;;;;;;;;;;5053901;28;20374;-78
2023/01/29 07:51:33;;;;;;;;;;;;;;;;;;5053005;28;19909;-78
2023/01/29 07:53:59;;;;;;;;;;;;;;;;;;5055119;28;19905;-78
2023/01/29 07:56:25;;;;;;;;;;;;;;;;;;5055017;28;20357;-77
2023/01/29 07:58:51;;;;;;;;;;;;;;;;;;5054966;28;20349;-78
2023/01/29 08:01:17;;;;;;;;;;;;;;;;;;5055001;28;19916;-78
2023/01/29 08:03:43;;;;;;;;;;;;;;;;;;5055081;28;19905;-78
2023/01/29 08:06:09;;;;;;;;;;;;;;;;;;5055750;28;19995;-77
2023/01/29 08:08:35;;;;;;;;;;;;;;;;;;5054312;28;19920;-77
2023/01/29 08:11:01;;;;;;;;;;;;;;;;;;5055098;28;19962;-78
2023/01/29 08:13:27;;;;;;;;;;;;;;;;;;5056697;28;19913;-78
2023/01/29 08:15:53;;;;;;;;;;;;;;;;;;5055532;28;19908;-78
2023/01/29 08:18:19;;;;;;;;;;;;;;;;;;5056396;28;19916;-78
2023/01/29 08:20:45;;;;;;;;;;;;;;;;;;5055185;28;19908;-79
2023/01/29 08:23:10;;;;;;;;;;;;;;;;;;5053532;28;19912;-77
2023/01/29 08:25:36;;;;;;;;;;;;;;;;;;5054274;28;19916;-78
2023/01/29 08:28:02;;;;;;;;;;;;;;;;;;5055402;28;20323;-80
2023/01/29 08:30:28;;;;;;;;;;;;;;;;;;5060216;28;19909;-78
2023/01/29 08:32:54;;;;;;;;;;;;;;;;;;5057719;28;19916;-78
2023/01/29 08:35:20;;;;;;;;;;;;;;;;;;5056206;28;19909;-78
2023/01/29 08:37:46;;;;;;;;;;;;;;;;;;5058242;28;19913;-78
2023/01/29 08:40:12;;;;;;;;;;;;;;;;;;5054898;28;19913;-78
2023/01/29 08:42:40;;;;;;;;;;;;;;;;;;5056919;28;19915;-78
2023/01/29 08:45:06;;;;;;;;;;;;;;;;;;5055644;28;19909;-79
2023/01/29 08:47:32;;;;;;;;;;;;;;;;;;5055461;28;19921;-78
2023/01/29 08:49:57;;;;;;;;;;;;;;;;;;5056240;28;19913;-81
2023/01/29 08:52:23;;;;;;;;;;;;;;;;;;5066185;28;19896;-81
2023/01/29 08:54:49;;;;;;;;;;;;;;;;;;5064337;28;19916;-81
2023/01/29 08:57:15;;;;;;;;;;;;;;;;;;5062622;28;20289;-81
2023/01/29 08:59:47;;;;;;;;;;;;;;;;;;5065773;28;19937;-81
2023/01/29 09:02:33;;;;;;;;;;;;;;;;;;5068716;28;19922;-81
2023/01/29 09:12:38;;;;;;;;;;;;;;;;;;5556841;22;20454;-79
2023/01/29 09:15:04;;;;;;;;;;;;;;;;;;5075184;28;19908;-80
2023/01/29 09:17:30;;;;;;;;;;;;;;;;;;5075385;28;19915;-80
2023/01/29 09:19:57;;;;;;;;;;;;;;;;;;5075151;28;20369;-80
2023/01/29 09:22:23;;;;;;;;;;;;;;;;;;5074505;28;20425;-79
2023/01/29 09:24:49;;;;;;;;;;;;;;;;;;5076039;28;19909;-80
2023/01/29 09:27:15;;;;;;;;;;;;;;;;;;5074236;28;19934;-79
2023/01/29 09:29:41;;;;;;;;;;;;;;;;;;5074460;28;19931;-79
2023/01/29 09:32:07;;;;;;;;;;;;;;;;;;5074109;28;19909;-79
2023/01/29 09:34:32;;;;;;;;;;;;;;;;;;5075525;28;20372;-79
2023/01/29 09:36:58;;;;;;;;;;;;;;;;;;5075664;28;19908;-79
2023/01/29 09:39:24;;;;;;;;;;;;;;;;;;5076798;28;19959;-80
2023/01/29 09:41:50;;;;;;;;;;;;;;;;;;5077474;28;19909;-78
2023/01/29 09:44:16;;;;;;;;;;;;;;;;;;5073040;28;20384;-79
2023/01/29 09:46:42;;;;;;;;;;;;;;;;;;5075640;28;19912;-80
2023/01/29 09:49:08;;;;;;;;;;;;;;;;;;5074357;28;19912;-80
2023/01/29 09:51:34;;;;;;;;;;;;;;;;;;5075299;28;19908;-80
2023/01/29 09:54:00;;;;;;;;;;;;;;;;;;5076521;28;19908;-80
2023/01/29 09:56:27;;;;;;;;;;;;;;;;;;5073498;28;19915;-80
2023/01/29 09:58:53;;;;;;;;;;;;;;;;;;5110348;22;20008;-80
2023/01/29 10:01:19;;;;;;;;;;;;;;;;;;5017292;28;20018;-79
2023/01/29 10:03:45;;;;;;;;;;;;;;;;;;5016998;28;20469;-79
2023/01/29 10:06:11;;;;;;;;;;;;;;;;;;5017004;28;19910;-81
2023/01/29 10:08:37;;;;;;;;;;;;;;;;;;5034471;28;19913;-79
2023/01/29 10:11:03;;;;;;;;;;;;;;;;;;5035720;28;20392;-81
2023/01/29 10:13:29;;;;;;;;;;;;;;;;;;5024227;28;19968;-81
2023/01/29 10:15:55;;;;;;;;;;;;;;;;;;5042266;28;19936;-82
2023/01/29 10:31:56;;;;;;;;;;;;;;;;;;5311602;22;19933;-81
2023/01/29 10:34:22;;;;;;;;;;;;;;;;;;5076610;28;20288;-81
2023/01/29 10:36:48;;;;;;;;;;;;;;;;;;5082219;28;19966;-81
2023/01/29 10:39:15;;;;;;;;;;;;;;;;;;5082283;28;20003;-81
2023/01/29 10:41:41;;;;;;;;;;;;;;;;;;5183071;22;19930;-80
2023/01/29 10:44:07;;;;;;;;;;;;;;;;;;5095482;28;20374;-81
2023/01/29 10:46:33;;;;;;;;;;;;;;;;;;5099280;28;20038;-81
2023/01/29 10:48:59;;;;;;;;;;;;;;;;;;5094564;28;19912;-80
2023/01/29 10:51:24;;;;;;;;;;;;;;;;;;5095605;28;19919;-81
2023/01/29 10:53:50;;;;;;;;;;;;;;;;;;5095151;28;20007;-80
2023/01/29 10:56:16;;;;;;;;;;;;;;;;;;5097333;28;19947;-80
2023/01/29 10:58:42;;;;;;;;;;;;;;;;;;5096061;28;19908;-80
2023/01/29 11:01:08;;;;;;;;;;;;;;;;;;5094626;28;19916;-81
2023/01/29 11:03:34;;;;;;;;;;;;;;;;;;5095164;28;20015;-79
2023/01/29 11:06:00;;;;;;;;;;;;;;;;;;5094776;28;19908;-80
2023/01/29 11:08:27;;;;;;;;;;;;;;;;;;5096151;28;20414;-80
2023/01/29 11:16:26;;;;;;;;;;;;;;;;;;6131056;22;20293;-81
2023/01/29 11:18:52;;;;;;;;;;;;;;;;;;5074411;28;19927;-82
2023/01/29 11:21:18;;;;;;;;;;;;;;;;;;5073673;28;19908;-82
2023/01/29 11:23:45;;;;;;;;;;;;;;;;;;5074993;28;19931;-82
2023/01/29 11:26:11;;;;;;;;;;;;;;;;;;5073912;28;20399;-81
2023/01/29 11:28:37;;;;;;;;;;;;;;;;;;5073933;28;19916;-81
2023/01/29 11:31:03;;;;;;;;;;;;;;;;;;5073950;28;19909;-81
2023/01/29 11:33:29;;;;;;;;;;;;;;;;;;5075021;28;20291;-81
2023/01/29 11:35:56;;;;;;;;;;;;;;;;;;5073445;28;20360;-81
2023/01/29 11:38:22;;;;;;;;;;;;;;;;;;5073930;28;20286;-82
2023/01/29 12:19:00;;;;;;;;;;;;;;;;;;5974998;22;20319;-81
2023/01/29 12:21:25;;;;;;;;;;;;;;;;;;5097579;28;19915;-81
2023/01/29 12:23:51;;;;;;;;;;;;;;;;;;5099207;28;20344;-81
2023/01/29 12:26:17;;;;;;;;;;;;;;;;;;5099519;28;19908;-81
2023/01/29 12:28:53;;;;;;;;;;;;;;;;;;5104071;28;19948;-80
2023/01/29 12:31:19;;;;;;;;;;;;;;;;;;5343523;22;20424;-80
2023/01/29 12:33:45;;;;;;;;;;;;;;;;;;5061065;28;20369;-81
2023/01/29 12:36:11;;;;;;;;;;;;;;;;;;5057664;28;19920;-80
2023/01/29 12:38:37;;;;;;;;;;;;;;;;;;5058365;28;19916;-80
2023/01/29 12:41:03;;;;;;;;;;;;;;;;;;5058513;28;20384;-80
2023/01/29 12:43:29;;;;;;;;;;;;;;;;;;5058842;28;19909;-80
2023/01/29 12:45:54;;;;;;;;;;;;;;;;;;5056788;28;19916;-80
2023/01/29 12:48:20;;;;;;;;;;;;;;;;;;5057694;28;19924;-81
2023/01/29 12:50:46;;;;;;;;;;;;;;;;;;5056664;28;19939;-79
2023/01/29 12:53:12;;;;;;;;;;;;;;;;;;5058123;28;19952;-80
2023/01/29 12:55:38;;;;;;;;;;;;;;;;;;5056478;28;19958;-81
2023/01/29 12:58:05;;;;;;;;;;;;;;;;;;5055963;28;20392;-80
2023/01/29 13:00:30;;;;;;;;;;;;;;;;;;5057488;28;19913;-80
2023/01/29 13:02:56;;;;;;;;;;;;;;;;;;5058180;28;19915;-81
2023/01/29 13:05:22;;;;;;;;;;;;;;;;;;5057657;28;20008;-80
2023/01/29 13:07:49;;;;;;;;;;;;;;;;;;5056841;28;19935;-80
2023/01/29 13:10:15;;;;;;;;;;;;;;;;;;5058956;28;19915;-81
2023/01/29 13:12:41;;;;;;;;;;;;;;;;;;5060909;28;19912;-81
2023/01/29 13:15:07;;;;;;;;;;;;;;;;;;5056270;28;20016;-81
2023/01/29 13:17:33;;;;;;;;;;;;;;;;;;5055996;28;20452;-81
2023/01/29 13:19:59;;;;;;;;;;;;;;;;;;5060214;28;19955;-81
2023/01/29 13:22:25;;;;;;;;;;;;;;;;;;5056417;28;19912;-81
2023/01/29 13:24:51;;;;;;;;;;;;;;;;;;5059830;28;19979;-81
2023/01/29 13:27:17;;;;;;;;;;;;;;;;;;5055548;28;19916;-81
2023/01/29 13:29:42;;;;;;;;;;;;;;;;;;5055540;28;19909;-81
2023/01/29 13:32:09;;;;;;;;;;;;;;;;;;5057113;28;19916;-80
2023/01/29 13:34:35;;;;;;;;;;;;;;;;;;5056317;28;20003;-81
2023/01/29 13:37:01;;;;;;;;;;;;;;;;;;5055581;28;19948;-80
2023/01/29 13:39:27;;;;;;;;;;;;;;;;;;5058049;28;20335;-81
2023/01/29 13:41:53;;;;;;;;;;;;;;;;;;5057399;28;19913;-81
2023/01/29 13:44:19;;;;;;;;;;;;;;;;;;5058044;28;19909;-81
2023/01/29 13:46:45;;;;;;;;;;;;;;;;;;5058863;28;20426;-81
2023/01/29 13:49:13;;;;;;;;;;;;;;;;;;5058059;28;20434;-81
2023/01/29 13:51:38;;;;;;;;;;;;;;;;;;5058678;28;19940;-79
2023/01/29 13:54:04;;;;;;;;;;;;;;;;;;5057795;28;20426;-81
2023/01/29 13:56:30;;;;;;;;;;;;;;;;;;5056694;28;19920;-79
2023/01/29 13:58:56;;;;;;;;;;;;;;;;;;5056877;28;19999;-79
2023/01/29 14:01:22;;;;;;;;;;;;;;;;;;5056142;28;20385;-80
2023/01/29 14:03:48;;;;;;;;;;;;;;;;;;5055020;28;19905;-81
2023/01/29 14:06:14;;;;;;;;;;;;;;;;;;5054231;28;19951;-80
2023/01/29 14:08:40;;;;;;;;;;;;;;;;;;5055212;28;19917;-80
2023/01/29 14:11:06;;;;;;;;;;;;;;;;;;5054832;28;19912;-81
2023/01/29 14:13:32;;;;;;;;;;;;;;;;;;5055072;28;19966;-80
2023/01/29 14:15:58;;;;;;;;;;;;;;;;;;5056057;28;19908;-80
2023/01/29 14:18:24;;;;;;;;;;;;;;;;;;5056182;28;19910;-81
2023/01/29 15:12:16;;;;;;;;;;;;;;;;;;5316150;22;20058;-81
2023/01/29 15:14:43;;;;;;;;;;;;;;;;;;5075442;28;19956;-81
2023/01/29 15:17:09;;;;;;;;;;;;;;;;;;5058194;28;19916;-81
2023/01/29 15:38:35;;;;;;;;;;;;;;;;;;5279968;22;19932;-82
2023/01/29 15:41:01;;;;;;;;;;;;;;;;;;5059799;28;19893;-81
2023/01/29 15:43:27;;;;;;;;;;;;;;;;;;5058899;28;20423;-81
2023/01/29 15:45:53;;;;;;;;;;;;;;;;;;5061257;28;19951;-81
2023/01/29 15:48:19;;;;;;;;;;;;;;;;;;5070071;28;19916;-81
2023/01/29 16:04:27;;;;;;;;;;;;;;;;;;5119592;22;19928;-82
2023/01/29 16:06:53;;;;;;;;;;;;;;;;;;5085009;28;19919;-81
2023/01/29 16:09:19;;;;;;;;;;;;;;;;;;5081599;28;20291;-81
2023/01/29 16:11:45;;;;;;;;;;;;;;;;;;5067204;28;19908;-81
2023/01/29 16:14:11;;;;;;;;;;;;;;;;;;5062434;28;19904;-80
2023/01/29 16:16:37;;;;;;;;;;;;;;;;;;5067094;28;19909;-79
2023/01/29 16:19:03;;;;;;;;;;;;;;;;;;5059313;28;19916;-77
2023/01/29 16:21:29;;;;;;;;;;;;;;;;;;5068640;28;19908;-81
2023/01/29 16:23:55;;;;;;;;;;;;;;;;;;5074324;28;19908;-82
2023/01/29 16:26:27;;;;;;;;;;;;;;;;;;5071778;28;19915;-81
2023/01/29 16:28:59;;;;;;;;;;;;;;;;;;5084013;28;20011;-81
2023/01/29 16:48:01;;;;;;;;;;;;;;;;;;5090457;22;20415;-76
2023/01/29 16:50:27;;;;;;;;;;;;;;;;;;5059683;28;20300;-77
2023/01/29 16:52:53;;;;;;;;;;;;;;;;;;5059218;28;20363;-77
2023/01/29 16:55:19;;;;;;;;;;;;;;;;;;5059179;28;20004;-77
2023/01/29 16:57:45;;;;;;;;;;;;;;;;;;5058474;28;19908;-77
2023/01/29 17:00:11;;;;;;;;;;;;;;;;;;5059531;28;19908;-77
2023/01/29 17:02:37;;;;;;;;;;;;;;;;;;5059227;28;19908;-77
2023/01/29 17:05:03;;;;;;;;;;;;;;;;;;5076437;28;19909;-77
2023/01/29 17:07:29;;;;;;;;;;;;;;;;;;5058343;28;20390;-77
2023/01/29 17:09:55;;;;;;;;;;;;;;;;;;5077558;28;19908;-77
2023/01/29 17:12:21;;;;;;;;;;;;;;;;;;5077537;28;19947;-77
2023/01/29 17:14:46;;;;;;;;;;;;;;;;;;5077186;28;19915;-77
2023/01/29 17:17:12;;;;;;;;;;;;;;;;;;5076717;28;19908;-76
2023/01/29 17:19:38;;;;;;;;;;;;;;;;;;5058290;28;19916;-77
2023/01/29 17:22:07;;;;;;;;;;;;;;;;;;5077387;28;19995;-77
2023/01/29 17:24:33;;;;;;;;;;;;;;;;;;5058641;28;19923;-75
2023/01/29 17:26:59;;;;;;;;;;;;;;;;;;5058485;28;19971;-77
2023/01/29 17:29:25;;;;;;;;;;;;;;;;;;5058717;28;19913;-76
2023/01/29 17:31:51;;;;;;;;;;;;;;;;;;5059140;28;20312;-78
2023/01/29 17:34:17;;;;;;;;;;;;;;;;;;5076487;28;20418;-78
2023/01/29 17:36:43;;;;;;;;;;;;;;;;;;5058762;28;19916;-77
2023/01/29 17:39:09;;;;;;;;;;;;;;;;;;5058467;28;20015;-77
2023/01/29 17:41:35;;;;;;;;;;;;;;;;;;5076870;28;19961;-77
2023/01/29 17:44:01;;;;;;;;;;;;;;;;;;5059626;28;20003;-77
2023/01/29 17:46:27;;;;;;;;;;;;;;;;;;5058739;28;19915;-77
2023/01/29 17:48:52;;;;;;;;;;;;;;;;;;5055774;28;19917;-77
2023/01/29 17:51:18;;;;;;;;;;;;;;;;;;5075176;28;19908;-78
2023/01/29 17:53:44;;;;;;;;;;;;;;;;;;5056365;28;19950;-76
2023/01/29 17:56:10;;;;;;;;;;;;;;;;;;5073846;28;19915;-76
2023/01/29 17:58:36;;;;;;;;;;;;;;;;;;5074963;28;19999;-76
2023/01/29 18:01:02;;;;;;;;;;;;;;;;;;5075109;28;19999;-76
2023/01/29 18:03:28;;;;;;;;;;;;;;;;;;5058764;28;19908;-75
2023/01/29 18:05:54;;;;;;;;;;;;;;;;;;5057963;28;20381;-76
2023/01/29 18:08:20;;;;;;;;;;;;;;;;;;5075507;28;19912;-77
2023/01/29 18:10:46;;;;;;;;;;;;;;;;;;5058289;28;19909;-75
2023/01/29 18:13:12;;;;;;;;;;;;;;;;;;5076433;28;20384;-78
2023/01/29 18:15:38;;;;;;;;;;;;;;;;;;5058209;28;19931;-77
2023/01/29 18:18:04;;;;;;;;;;;;;;;;;;5056765;28;19908;-77
2023/01/29 18:20:30;;;;;;;;;;;;;;;;;;5076285;28;19908;-77
2023/01/29 18:22:56;;;;;;;;;;;;;;;;;;5058141;28;20003;-76
2023/01/29 18:25:22;;;;;;;;;;;;;;;;;;5057826;28;19915;-77
2023/01/29 18:27:48;;;;;;;;;;;;;;;;;;5075391;28;19963;-76
2023/01/29 18:30:14;;;;;;;;;;;;;;;;;;5076156;28;19946;-77
2023/01/29 18:32:39;;;;;;;;;;;;;;;;;;5057747;28;20334;-76
2023/01/29 18:35:06;;;;;;;;;;;;;;;;;;5057279;28;19956;-77
2023/01/29 18:37:32;;;;;;;;;;;;;;;;;;5057075;28;19915;-77
2023/01/29 18:39:58;;;;;;;;;;;;;;;;;;5075614;28;19909;-77
2023/01/29 18:42:24;;;;;;;;;;;;;;;;;;5057361;28;19916;-77
2023/01/29 18:44:50;;;;;;;;;;;;;;;;;;5059099;28;20324;-77
2023/01/29 18:47:17;;;;;;;;;;;;;;;;;;5058537;28;19939;-76
2023/01/29 18:49:42;;;;;;;;;;;;;;;;;;5075886;28;19912;-77
2023/01/29 18:52:08;;;;;;;;;;;;;;;;;;5057841;28;19954;-76
2023/01/29 18:54:34;;;;;;;;;;;;;;;;;;5057741;28;19940;-76
2023/01/29 18:57:00;;;;;;;;;;;;;;;;;;5058173;28;19931;-77
2023/01/29 18:59:26;;;;;;;;;;;;;;;;;;5075701;28;19959;-77
2023/01/29 19:01:52;;;;;;;;;;;;;;;;;;5057460;28;19987;-77
2023/01/29 19:04:18;;;;;;;;;;;;;;;;;;5075740;28;19980;-78
2023/01/29 19:06:44;;;;;;;;;;;;;;;;;;5075848;28;19905;-77
2023/01/29 19:09:10;;;;;;;;;;;;;;;;;;5074222;28;19913;-78
2023/01/29 19:11:36;;;;;;;;;;;;;;;;;;5074510;28;19916;-77
2023/01/29 19:14:01;;;;;;;;;;;;;;;;;;5075962;28;19958;-77
2023/01/29 19:16:27;;;;;;;;;;;;;;;;;;5056953;28;19909;-79
2023/01/29 19:18:54;;;;;;;;;;;;;;;;;;5056964;28;19909;-78
2023/01/29 19:21:20;;;;;;;;;;;;;;;;;;5075417;28;19929;-76
2023/01/29 19:23:46;;;;;;;;;;;;;;;;;;5075279;28;20328;-77
2023/01/29 19:26:12;;;;;;;;;;;;;;;;;;5074884;28;19909;-77
2023/01/29 19:28:38;;;;;;;;;;;;;;;;;;5075164;28;19913;-76
2023/01/29 19:31:04;;;;;;;;;;;;;;;;;;5078983;28;19912;-77
2023/01/29 19:33:30;;;;;;;;;;;;;;;;;;5061475;28;19909;-77
2023/01/29 19:35:56;;;;;;;;;;;;;;;;;;5071819;28;20370;-76
2023/01/29 19:38:22;;;;;;;;;;;;;;;;;;5039545;28;19909;-78
2023/01/29 19:40:48;;;;;;;;;;;;;;;;;;5039007;28;19905;-77
2023/01/29 19:43:14;;;;;;;;;;;;;;;;;;5058937;28;19916;-76
2023/01/29 19:45:40;;;;;;;;;;;;;;;;;;5058203;28;19909;-76
2023/01/29 19:48:06;;;;;;;;;;;;;;;;;;5040354;28;19924;-75
2023/01/29 19:50:32;;;;;;;;;;;;;;;;;;5038323;28;20014;-76
2023/01/29 19:52:58;;;;;;;;;;;;;;;;;;5040638;28;19940;-78
2023/01/29 19:55:24;;;;;;;;;;;;;;;;;;5057865;28;19947;-76